Time;durP1;ratioP1;P1;durP2;ratioP2;P2;SDS_P1;SDS_P2;PMS_P1;PMS_P2;Temp;Humidity;BMP_temperature;BMP_pressure;BME280_temperature;BME280_humidity;BME280_pressure;Samples;Min_cycle;Max_cycle;Signal;HPM_P1;HPM_P2
2022/05/23 00:00:52;;;;;;;4.80;2.65;;;15.00;99.90;;;;;;5029088;28;20045;-66
2022/05/23 00:03:18;;;;;;;4.43;2.53;;;15.00;99.90;;;;;;5014682;28;20045;-66
2022/05/23 00:05:45;;;;;;;6.43;2.50;;;15.00;99.90;;;;;;5015373;28;20049;-66
2022/05/23 00:08:10;;;;;;;4.28;2.20;;;15.00;99.90;;;;;;5041604;28;20083;-66
2022/05/23 00:10:37;;;;;;;4.05;2.97;;;15.10;99.90;;;;;;5053232;28;20065;-65
2022/05/23 00:13:03;;;;;;;5.00;2.30;;;15.00;99.90;;;;;;5032883;28;20049;-66
2022/05/23 00:15:29;;;;;;;7.07;2.20;;;15.00;99.90;;;;;;5013549;28;20054;-65
2022/05/23 00:17:55;;;;;;;5.40;2.90;;;14.90;99.90;;;;;;5049161;28;20111;-66
2022/05/23 00:20:23;;;;;;;4.97;2.80;;;14.90;99.90;;;;;;5028603;28;20137;-66
2022/05/23 00:22:49;;;;;;;4.60;2.60;;;14.90;99.90;;;;;;5027994;28;20049;-65
2022/05/23 00:25:15;;;;;;;5.18;2.60;;;14.80;99.90;;;;;;5031200;28;20091;-67
2022/05/23 00:27:45;;;;;;;4.05;2.45;;;14.80;99.90;;;;;;5032077;28;20057;-65
2022/05/23 00:30:17;;;;;;;3.97;2.30;;;14.80;99.90;;;;;;5028922;28;20080;-65
2022/05/23 00:35:27;;;;;;;3.72;3.03;;;14.80;99.90;;;;;;5043147;28;20113;-65
2022/05/23 00:37:58;;;;;;;4.85;2.40;;;14.70;99.90;;;;;;5023255;28;20073;-66
2022/05/23 00:40:30;;;;;;;4.13;2.40;;;14.70;99.90;;;;;;5027605;28;20069;-65
2022/05/23 00:43:23;;;;;;;3.95;2.55;;;14.70;99.90;;;;;;5045945;28;20046;-66
2022/05/23 00:45:54;;;;;;;5.35;2.72;;;14.70;99.90;;;;;;5042911;28;20379;-66
2022/05/23 00:48:23;;;;;;;3.97;2.47;;;14.60;99.90;;;;;;5025861;28;20068;-65
2022/05/23 00:50:56;;;;;;;6.28;2.95;;;14.60;99.90;;;;;;5045543;28;20041;-66
2022/05/23 00:53:55;;;;;;;2.38;2.17;;;14.60;99.90;;;;;;5031085;28;20041;-65
2022/05/23 00:56:25;;;;;;;6.10;2.87;;;14.50;99.90;;;;;;5020814;28;20053;-66
2022/05/23 00:58:58;;;;;;;4.60;2.55;;;14.50;99.90;;;;;;5029221;28;20203;-65
2022/05/23 01:01:28;;;;;;;7.57;3.53;;;14.40;99.90;;;;;;5048924;28;20056;-65
2022/05/23 01:03:54;;;;;;;4.63;2.75;;;14.50;99.90;;;;;;5044416;28;20516;-65
2022/05/23 01:06:20;;;;;;;6.13;3.08;;;14.40;99.90;;;;;;5011044;28;20068;-66
2022/05/23 01:08:47;;;;;;;4.78;2.72;;;14.30;99.90;;;;;;5050482;28;20053;-65
2022/05/23 01:11:14;;;;;;;6.40;2.90;;;14.30;99.90;;;;;;5029920;28;20045;-65
2022/05/23 01:13:40;;;;;;;4.90;2.88;;;14.20;99.90;;;;;;5030807;28;20049;-66
2022/05/23 01:16:07;;;;;;;4.13;2.50;;;14.20;99.90;;;;;;5045188;28;20061;-65
2022/05/23 01:18:33;;;;;;;5.63;3.00;;;14.20;99.90;;;;;;5026296;28;20054;-66
2022/05/23 01:21:05;;;;;;;4.95;2.70;;;14.00;99.90;;;;;;5027231;28;20044;-66
2022/05/23 01:23:40;;;;;;;4.72;2.80;;;13.90;99.90;;;;;;5025181;28;20054;-66
2022/05/23 01:26:07;;;;;;;5.15;2.80;;;13.70;99.90;;;;;;5026703;28;20095;-65
2022/05/23 01:28:38;;;;;;;4.35;2.55;;;13.80;99.90;;;;;;5045379;28;20045;-65
2022/05/23 01:31:05;;;;;;;3.45;2.58;;;13.70;99.90;;;;;;5047230;28;20045;-66
2022/05/23 01:33:31;;;;;;;5.60;2.92;;;13.60;99.90;;;;;;5020621;28;20050;-65
2022/05/23 01:35:57;;;;;;;7.15;3.03;;;13.50;99.90;;;;;;5008659;28;20444;-65
2022/05/23 01:38:27;;;;;;;7.43;3.20;;;13.50;99.90;;;;;;5027422;28;20075;-65
2022/05/23 01:40:57;;;;;;;4.28;2.97;;;13.50;99.90;;;;;;5026080;28;20076;-65
2022/05/23 01:43:23;;;;;;;5.57;3.00;;;13.50;99.90;;;;;;5031392;28;20053;-66
2022/05/23 01:45:49;;;;;;;8.05;3.55;;;13.60;99.90;;;;;;5039983;28;20101;-65
2022/05/23 01:48:14;;;;;;;5.85;3.42;;;13.60;99.90;;;;;;5028089;28;20076;-65
2022/05/23 01:50:40;;;;;;;5.50;3.40;;;13.70;99.90;;;;;;5023924;28;20044;-66
2022/05/23 01:53:06;;;;;;;6.65;3.53;;;13.70;99.90;;;;;;5021570;28;20045;-65
2022/05/23 01:55:32;;;;;;;6.85;3.65;;;13.60;99.90;;;;;;5063888;28;20073;-66
2022/05/23 01:57:58;;;;;;;5.57;3.60;;;13.80;99.90;;;;;;5018526;28;20119;-66
2022/05/23 02:03:09;;;;;;;4.70;3.55;;;13.70;99.90;;;;;;5021332;28;20057;-65
2022/05/23 02:05:35;;;;;;;4.25;3.03;;;13.70;99.90;;;;;;5003682;28;20049;-65
2022/05/23 02:08:01;;;;;;;5.15;3.22;;;13.80;99.90;;;;;;5019581;28;20080;-65
2022/05/23 02:10:29;;;;;;;5.70;3.70;;;13.60;99.90;;;;;;5026545;28;20049;-66
2022/05/23 02:12:56;;;;;;;6.18;3.88;;;13.70;99.90;;;;;;5039463;28;20563;-65
2022/05/23 02:15:22;;;;;;;5.72;3.63;;;13.70;99.90;;;;;;5026392;28;20066;-66
2022/05/23 02:17:48;;;;;;;4.03;3.60;;;13.70;99.90;;;;;;5028786;28;20052;-66
2022/05/23 02:20:15;;;;;;;7.60;3.72;;;13.90;99.90;;;;;;5025399;28;20045;-65
2022/05/23 02:22:41;;;;;;;7.20;4.25;;;13.70;99.90;;;;;;5041723;28;20429;-65
2022/05/23 02:25:07;;;;;;;5.95;3.92;;;13.40;99.90;;;;;;5023754;28;20628;-65
2022/05/23 02:27:34;;;;;;;7.53;4.45;;;13.50;99.90;;;;;;5044663;28;20061;-65
2022/05/23 02:30:00;;;;;;;6.88;4.70;;;13.50;99.90;;;;;;5059680;28;20055;-65
2022/05/23 02:32:26;;;;;;;6.10;3.92;;;13.60;99.90;;;;;;5059704;28;20049;-66
2022/05/23 02:34:52;;;;;;;6.22;3.97;;;13.50;99.90;;;;;;5016192;28;20069;-65
2022/05/23 02:37:18;;;;;;;6.97;4.78;;;13.50;99.90;;;;;;5020305;28;20049;-66
2022/05/23 02:39:44;;;;;;;7.43;3.67;;;13.60;99.90;;;;;;5027625;28;20057;-65
2022/05/23 02:42:09;;;;;;;6.35;3.80;;;13.70;99.90;;;;;;5044240;28;20072;-65
2022/05/23 02:44:36;;;;;;;7.25;3.80;;;13.60;99.90;;;;;;5043961;28;20060;-66
2022/05/23 02:47:02;;;;;;;5.78;4.32;;;13.60;99.90;;;;;;5026337;28;20533;-65
2022/05/23 02:49:28;;;;;;;6.90;4.40;;;13.60;99.90;;;;;;5028661;28;20068;-65
2022/05/23 02:51:54;;;;;;;6.57;4.60;;;13.70;99.90;;;;;;5045683;28;20063;-66
2022/05/23 02:54:21;;;;;;;6.68;4.32;;;13.70;99.90;;;;;;5026085;28;20532;-65
2022/05/23 02:56:46;;;;;;;6.38;4.82;;;13.70;99.90;;;;;;5020520;28;20060;-66
2022/05/23 02:59:12;;;;;;;6.60;4.60;;;13.70;99.90;;;;;;5019421;28;20042;-65
2022/05/23 03:03:01;;;;;;;9.40;5.13;;;13.60;99.90;;;;;;5024893;28;20038;-65
2022/05/23 03:04:24;;;;;;;6.45;4.72;;;13.60;99.90;;;;;;5062466;28;20045;-65
2022/05/23 03:06:51;;;;;;;7.53;4.30;;;13.50;99.90;;;;;;5043366;28;20045;-66
2022/05/23 03:09:16;;;;;;;9.43;5.03;;;13.50;99.90;;;;;;5065858;28;20056;-66
2022/05/23 03:11:42;;;;;;;7.05;4.82;;;13.50;99.90;;;;;;5030305;28;20046;-65
2022/05/23 03:14:08;;;;;;;5.15;4.47;;;13.60;99.90;;;;;;5046525;28;20075;-66
2022/05/23 03:16:33;;;;;;;5.90;4.53;;;13.60;99.90;;;;;;5026952;28;20063;-65
2022/05/23 03:18:59;;;;;;;7.03;4.80;;;13.60;99.90;;;;;;5029343;28;20079;-66
2022/05/23 03:26:59;;;;;;;8.27;5.32;;;13.70;99.90;;;;;;5031801;28;20104;-65
2022/05/23 03:29:25;;;;;;;5.72;4.55;;;13.70;99.90;;;;;;5050326;28;20460;-65
2022/05/23 03:31:51;;;;;;;9.77;5.90;;;13.70;99.90;;;;;;5049049;28;20045;-66
2022/05/23 03:34:17;;;;;;;7.38;5.10;;;13.70;99.90;;;;;;5022615;28;20520;-66
2022/05/23 03:36:42;;;;;;;5.75;4.80;;;13.70;99.90;;;;;;5042695;28;20116;-65
2022/05/23 03:39:09;;;;;;;5.72;4.63;;;13.70;99.90;;;;;;5047674;28;20047;-65
2022/05/23 03:41:35;;;;;;;5.72;4.95;;;13.80;99.90;;;;;;5031833;28;20040;-65
2022/05/23 03:44:01;;;;;;;7.18;5.40;;;13.60;99.90;;;;;;5028359;28;20041;-65
2022/05/23 03:46:28;;;;;;;8.23;4.90;;;13.60;99.90;;;;;;5059183;28;20054;-65
2022/05/23 03:48:54;;;;;;;4.93;4.18;;;13.60;99.90;;;;;;5030256;28;20045;-65
2022/05/23 03:51:20;;;;;;;6.68;4.60;;;13.70;99.90;;;;;;5029889;28;20087;-65
2022/05/23 03:53:45;;;;;;;9.57;4.85;;;13.70;99.90;;;;;;5049835;28;20128;-65
2022/05/23 03:56:11;;;;;;;6.53;4.60;;;13.70;99.90;;;;;;5029724;28;20049;-66
2022/05/23 03:58:37;;;;;;;7.90;5.28;;;13.70;99.90;;;;;;5025343;28;20105;-65
2022/05/23 04:01:14;;;;;;;6.43;4.80;;;13.60;99.90;;;;;;5011663;28;20049;-65
2022/05/23 04:03:40;;;;;;;5.38;4.88;;;13.50;99.90;;;;;;5046119;28;20049;-65
2022/05/23 04:06:06;;;;;;;5.72;4.70;;;13.70;99.90;;;;;;5028370;28;20045;-66
2022/05/23 04:08:33;;;;;;;8.05;5.38;;;13.70;99.90;;;;;;5028311;28;20413;-66
2022/05/23 04:10:59;;;;;;;5.55;4.88;;;13.60;99.90;;;;;;5027935;28;20120;-66
2022/05/23 04:13:26;;;;;;;8.02;5.00;;;13.50;99.90;;;;;;5027694;28;20076;-65
2022/05/23 04:15:52;;;;;;;6.63;5.45;;;13.50;99.90;;;;;;5027142;28;20062;-65
2022/05/23 04:18:18;;;;;;;6.95;4.97;;;13.50;99.90;;;;;;5026826;28;20045;-65
2022/05/23 04:20:44;;;;;;;6.47;4.60;;;13.50;99.90;;;;;;5024578;28;20052;-65
2022/05/23 04:23:10;;;;;;;7.88;5.70;;;13.50;99.90;;;;;;5028031;28;20065;-66
2022/05/23 04:25:45;;;;;;;6.47;4.60;;;13.50;99.90;;;;;;5030432;28;20044;-65
2022/05/23 04:28:12;;;;;;;6.47;4.93;;;13.50;99.90;;;;;;5061379;28;20080;-66
2022/05/23 04:30:38;;;;;;;7.85;4.85;;;13.50;99.90;;;;;;5045797;28;20053;-65
2022/05/23 04:35:54;;;;;;;6.65;4.90;;;13.50;99.90;;;;;;5042334;28;20060;-64
2022/05/23 04:38:20;;;;;;;8.32;4.82;;;13.70;99.90;;;;;;5042922;28;20073;-65
2022/05/23 04:40:46;;;;;;;6.38;5.25;;;13.50;99.90;;;;;;5058080;28;20056;-64
2022/05/23 04:43:12;;;;;;;8.55;5.15;;;13.70;99.90;;;;;;5042931;28;20056;-65
2022/05/23 04:45:38;;;;;;;6.78;5.03;;;13.60;99.90;;;;;;5024983;28;20046;-64
2022/05/23 04:50:48;;;;;;;7.38;4.80;;;13.70;99.90;;;;;;5050059;28;20049;-64
2022/05/23 04:53:14;;;;;;;6.38;4.95;;;13.80;99.90;;;;;;5005887;28;20390;-65
2022/05/23 04:55:41;;;;;;;6.72;5.05;;;13.80;99.90;;;;;;5012375;28;20037;-64
2022/05/23 04:58:08;;;;;;;7.07;5.30;;;13.80;99.90;;;;;;5016691;28;20053;-64
2022/05/23 05:00:34;;;;;;;8.02;5.75;;;13.80;99.90;;;;;;5040160;28;20461;-64
2022/05/23 05:03:00;;;;;;;5.43;4.85;;;13.80;99.90;;;;;;5025100;28;20063;-63
2022/05/23 05:05:29;;;;;;;6.88;5.10;;;13.80;99.90;;;;;;5034598;28;20041;-65
2022/05/23 05:07:57;;;;;;;6.03;5.37;;;14.00;99.90;;;;;;5049525;28;20053;-65
2022/05/23 05:10:23;;;;;;;11.18;5.47;;;14.10;99.90;;;;;;5001163;28;20049;-65
2022/05/23 05:12:54;;;;;;;8.50;5.90;;;14.10;99.90;;;;;;5032590;28;20045;-65
2022/05/23 05:15:20;;;;;;;8.52;5.72;;;14.20;99.90;;;;;;5008415;28;20104;-65
2022/05/23 05:17:46;;;;;;;8.35;5.70;;;14.30;99.90;;;;;;5015199;28;20057;-66
2022/05/23 05:20:14;;;;;;;7.57;5.55;;;14.30;99.90;;;;;;5016466;28;20049;-64
2022/05/23 05:22:39;;;;;;;9.27;5.75;;;14.40;99.90;;;;;;5014521;28;20057;-64
2022/05/23 05:25:07;;;;;;;6.70;5.90;;;14.50;99.90;;;;;;5015273;28;20048;-64
2022/05/23 05:27:33;;;;;;;9.45;5.55;;;14.50;99.90;;;;;;5017700;28;20057;-64
2022/05/23 05:30:00;;;;;;;9.45;6.20;;;14.60;99.90;;;;;;5017484;28;20049;-65
2022/05/23 05:32:26;;;;;;;7.78;5.60;;;14.70;99.90;;;;;;5047695;28;20128;-65
2022/05/23 05:35:30;;;;;;;11.05;6.68;;;14.80;99.90;;;;;;5005568;28;20086;-64
2022/05/23 05:38:30;;;;;;;8.63;5.80;;;14.90;99.90;;;;;;5016277;28;20105;-64
2022/05/23 05:41:17;;;;;;;8.20;5.72;;;14.90;99.90;;;;;;5030137;28;20080;-64
2022/05/23 05:44:11;;;;;;;7.53;5.30;;;15.00;99.90;;;;;;5049375;28;20057;-65
2022/05/23 05:46:40;;;;;;;7.90;5.90;;;14.90;99.90;;;;;;5015522;28;20080;-65
2022/05/23 05:49:15;;;;;;;7.40;5.83;;;15.00;99.90;;;;;;5016287;28;20043;-64
2022/05/23 05:51:43;;;;;;;8.98;5.30;;;15.00;99.90;;;;;;5034481;28;20084;-65
2022/05/23 05:54:14;;;;;;;9.20;6.43;;;15.10;99.90;;;;;;5038094;28;20060;-65
2022/05/23 05:56:40;;;;;;;12.48;6.32;;;15.10;99.90;;;;;;5058038;28;20046;-64
2022/05/23 05:59:07;;;;;;;8.00;7.20;;;15.00;99.90;;;;;;5019166;28;20062;-64
2022/05/23 06:01:32;;;;;;;8.70;6.45;;;15.10;99.90;;;;;;4997301;28;20050;-65
2022/05/23 06:03:58;;;;;;;10.43;6.45;;;15.10;99.90;;;;;;5010914;28;20059;-64
2022/05/23 06:11:52;;;;;;;8.63;6.35;;;15.20;99.90;;;;;;5013873;28;20084;-64
2022/05/23 06:14:18;;;;;;;9.82;6.20;;;15.20;99.90;;;;;;5008767;28;20049;-65
2022/05/23 06:16:43;;;;;;;8.20;6.00;;;15.30;99.90;;;;;;5021017;28;20125;-65
2022/05/23 06:19:09;;;;;;;8.00;5.95;;;15.50;99.90;;;;;;5008998;28;20045;-65
2022/05/23 06:21:35;;;;;;;8.48;5.85;;;15.50;99.90;;;;;;5020197;28;20065;-65
2022/05/23 06:24:00;;;;;;;8.98;6.28;;;15.50;99.90;;;;;;4997043;28;20053;-65
2022/05/23 06:26:27;;;;;;;8.00;6.10;;;15.70;99.90;;;;;;5033014;28;20061;-65
2022/05/23 06:28:52;;;;;;;7.55;5.80;;;15.70;99.90;;;;;;5011620;28;20041;-65
2022/05/23 06:31:19;;;;;;;8.07;6.15;;;15.90;99.90;;;;;;5033039;28;20047;-65
2022/05/23 06:33:45;;;;;;;8.95;6.05;;;16.00;99.90;;;;;;5007601;28;20348;-65
2022/05/23 06:36:12;;;;;;;8.30;6.57;;;16.10;99.90;;;;;;5011429;28;20084;-65
2022/05/23 06:38:39;;;;;;;10.48;6.28;;;16.20;99.90;;;;;;5040687;28;20053;-65
2022/05/23 06:41:06;;;;;;;8.43;6.60;;;16.20;99.90;;;;;;5023851;28;20063;-65
2022/05/23 06:43:32;;;;;;;8.65;6.43;;;16.20;99.90;;;;;;5029290;28;20563;-65
2022/05/23 06:46:02;;;;;;;9.70;6.38;;;16.30;99.90;;;;;;5031657;28;20069;-65
2022/05/23 06:48:29;;;;;;;9.30;6.60;;;16.40;99.90;;;;;;5024787;28;20080;-65
2022/05/23 06:50:55;;;;;;;7.47;6.15;;;16.40;99.90;;;;;;5046041;28;20150;-65
2022/05/23 06:53:22;;;;;;;8.27;6.68;;;16.50;99.90;;;;;;5015020;28;20590;-66
2022/05/23 06:55:49;;;;;;;10.40;6.93;;;16.50;99.90;;;;;;5025621;28;20108;-65
2022/05/23 06:58:15;;;;;;;8.32;6.85;;;16.60;99.90;;;;;;5054405;28;20045;-65
2022/05/23 07:00:42;;;;;;;9.15;6.22;;;16.70;99.90;;;;;;5028040;28;20049;-65
2022/05/23 07:03:08;;;;;;;7.65;6.03;;;16.70;99.90;;;;;;5023476;28;20105;-65
2022/05/23 07:13:55;;;;;;;12.13;8.00;;;17.00;99.90;;;;;;5046829;28;20537;-66
2022/05/23 07:16:22;;;;;;;7.22;6.30;;;17.00;99.90;;;;;;5038664;28;20062;-66
2022/05/23 07:18:48;;;;;;;11.77;6.45;;;17.10;99.90;;;;;;4995991;28;20109;-67
2022/05/23 07:21:15;;;;;;;8.07;6.35;;;17.20;99.90;;;;;;5037876;28;20095;-66
2022/05/23 07:23:41;;;;;;;10.15;6.43;;;17.30;99.90;;;;;;5021744;28;20600;-66
2022/05/23 07:26:19;;;;;;;8.30;6.60;;;17.30;99.90;;;;;;5028080;28;20575;-66
2022/05/23 07:28:46;;;;;;;11.18;7.57;;;17.40;99.90;;;;;;5021142;28;20081;-66
2022/05/23 07:31:13;;;;;;;8.48;6.05;;;17.50;99.90;;;;;;5046374;28;20057;-66
2022/05/23 07:33:39;;;;;;;8.82;6.10;;;17.50;99.90;;;;;;5022603;28;20148;-66
2022/05/23 07:36:07;;;;;;;8.35;6.93;;;17.70;99.90;;;;;;5018804;28;20052;-66
2022/05/23 07:38:33;;;;;;;9.93;6.40;;;17.80;99.90;;;;;;5052629;28;20141;-67
2022/05/23 07:41:00;;;;;;;8.63;6.00;;;17.80;99.90;;;;;;5027403;28;20109;-66
2022/05/23 07:43:26;;;;;;;9.30;6.10;;;17.90;99.90;;;;;;5007636;28;20091;-65
2022/05/23 07:45:53;;;;;;;8.80;6.22;;;18.00;99.90;;;;;;5046561;28;20052;-65
2022/05/23 07:48:20;;;;;;;10.93;6.32;;;18.10;99.90;;;;;;5020564;28;20144;-66
2022/05/23 07:50:48;;;;;;;9.50;6.43;;;18.20;99.90;;;;;;5010580;28;20563;-66
2022/05/23 08:01:28;;;;;;;11.10;6.28;;;18.40;99.90;;;;;;4981747;28;20049;-66
2022/05/23 08:03:55;;;;;;;8.68;5.70;;;18.40;99.90;;;;;;5026063;28;20440;-66
2022/05/23 08:06:21;;;;;;;9.95;6.40;;;18.50;99.90;;;;;;4997620;28;20113;-66
2022/05/23 08:08:47;;;;;;;12.10;6.00;;;18.60;99.90;;;;;;5004302;28;20045;-66
2022/05/23 08:11:13;;;;;;;8.70;5.78;;;18.70;99.90;;;;;;5043905;28;20072;-66
2022/05/23 08:13:41;;;;;;;8.30;6.63;;;18.80;99.90;;;;;;4994949;28;20041;-66
2022/05/23 08:16:07;;;;;;;9.73;5.88;;;18.90;99.90;;;;;;5020495;28;20041;-66
2022/05/23 08:18:33;;;;;;;11.40;6.60;;;19.00;99.90;;;;;;5011504;28;20053;-66
2022/05/23 08:21:00;;;;;;;10.80;6.25;;;19.10;99.90;;;;;;5013986;28;20053;-66
2022/05/23 08:23:26;;;;;;;9.93;6.10;;;19.30;99.90;;;;;;5014133;28;20087;-66
2022/05/23 08:25:52;;;;;;;8.82;6.43;;;19.30;99.90;;;;;;5008109;28;20484;-65
2022/05/23 08:28:18;;;;;;;6.13;5.47;;;19.20;99.90;;;;;;5011046;28;20046;-66
2022/05/23 08:30:44;;;;;;;8.52;6.40;;;19.40;99.90;;;;;;5016154;28;20064;-66
2022/05/23 08:33:11;;;;;;;7.47;6.68;;;19.50;99.90;;;;;;5034747;28;20041;-66
2022/05/23 08:35:37;;;;;;;13.15;6.50;;;19.60;99.90;;;;;;5014288;28;20053;-66
2022/05/23 08:38:04;;;;;;;8.00;6.50;;;19.60;99.90;;;;;;5015438;28;20049;-66
2022/05/23 08:41:01;;;;;;;8.05;5.60;;;19.70;99.90;;;;;;5022299;28;20049;-66
2022/05/23 08:44:10;;;;;;;9.90;6.25;;;19.80;99.90;;;;;;5015064;28;20053;-67
2022/05/23 08:46:48;;;;;;;7.60;5.60;;;19.80;99.90;;;;;;4949315;28;20041;-66
2022/05/23 08:49:40;;;;;;;6.40;4.90;;;19.70;99.90;;;;;;5012210;28;20284;-66
2022/05/23 08:52:26;;;;;;;6.88;5.40;;;19.70;99.90;;;;;;5032086;28;20080;-66
2022/05/23 08:55:03;;;;;;;7.00;5.32;;;19.70;99.90;;;;;;5003247;28;20057;-66
2022/05/23 08:57:33;;;;;;;9.10;6.25;;;19.80;99.90;;;;;;4996266;28;20099;-66
2022/05/23 09:00:04;;;;;;;8.55;5.70;;;20.00;99.90;;;;;;5015638;28;20076;-66
2022/05/23 09:02:37;;;;;;;35.30;6.95;;;20.10;99.90;;;;;;5046567;28;20061;-66
2022/05/23 09:05:09;;;;;;;6.90;4.45;;;20.10;99.90;;;;;;5018268;28;20060;-66
2022/05/23 09:07:44;;;;;;;9.35;4.85;;;20.10;99.90;;;;;;5028363;28;20083;-66
2022/05/23 09:10:16;;;;;;;8.07;4.70;;;20.20;99.90;;;;;;5010306;28;20061;-67
2022/05/23 09:12:42;;;;;;;7.80;4.80;;;20.20;99.90;;;;;;5020579;28;20128;-66
2022/05/23 09:15:08;;;;;;;6.25;4.60;;;20.30;99.90;;;;;;5020058;28;20056;-67
2022/05/23 09:17:39;;;;;;;6.38;4.50;;;20.40;99.90;;;;;;5048127;28;20038;-67
2022/05/23 09:20:14;;;;;;;6.80;4.30;;;20.40;99.90;;;;;;5019824;28;20059;-66
2022/05/23 09:22:52;;;;;;;6.03;4.68;;;20.60;99.90;;;;;;5026335;28;20092;-66
2022/05/23 09:25:22;;;;;;;6.60;4.38;;;20.60;99.90;;;;;;5018780;28;20100;-66
2022/05/23 09:28:18;;;;;;;7.88;5.43;;;20.60;99.90;;;;;;5025561;28;20041;-66
2022/05/23 09:30:48;;;;;;;8.00;5.00;;;20.70;99.90;;;;;;4988826;28;20048;-66
2022/05/23 09:33:20;;;;;;;7.20;4.90;;;20.90;99.90;;;;;;5025747;28;20068;-66
2022/05/23 09:35:46;;;;;;;6.13;4.35;;;21.00;99.90;;;;;;5028496;28;20041;-66
2022/05/23 09:38:19;;;;;;;6.30;3.90;;;21.20;99.90;;;;;;5023193;28;20065;-66
2022/05/23 09:40:46;;;;;;;6.03;4.40;;;21.20;99.90;;;;;;5021254;28;20120;-66
2022/05/23 09:49:12;;;;;;;6.40;4.30;;;21.60;99.90;;;;;;5018711;28;20072;-67
2022/05/23 09:51:49;;;;;;;6.93;4.28;;;21.70;99.90;;;;;;5026291;28;20486;-67
2022/05/23 09:54:46;;;;;;;7.20;4.07;;;21.90;99.90;;;;;;5054690;28;20045;-67
2022/05/23 09:57:41;;;;;;;5.38;4.00;;;22.00;99.90;;;;;;4990023;28;20041;-66
2022/05/23 10:00:17;;;;;;;6.43;4.30;;;22.30;99.90;;;;;;4998921;28;20037;-67
2022/05/23 10:03:02;;;;;;;8.40;4.63;;;22.40;99.90;;;;;;5028231;28;20113;-67
2022/05/23 10:05:38;;;;;;;9.07;5.05;;;22.60;99.90;;;;;;5029397;28;20052;-67
2022/05/23 10:08:08;;;;;;;7.40;4.90;;;22.70;99.90;;;;;;5022648;28;20104;-66
2022/05/23 10:10:39;;;;;;;10.10;4.93;;;22.70;99.90;;;;;;5010082;28;20056;-66
2022/05/23 10:13:17;;;;;;;8.30;5.65;;;22.80;99.90;;;;;;5024317;28;20046;-65
2022/05/23 10:15:45;;;;;;;6.95;4.68;;;22.80;99.90;;;;;;5039187;28;20053;-66
2022/05/23 10:18:25;;;;;;;5.03;4.20;;;22.80;99.90;;;;;;5045141;28;20303;-65
2022/05/23 10:20:51;;;;;;;6.75;4.25;;;22.80;99.90;;;;;;5012326;28;20053;-65
2022/05/23 10:23:22;;;;;;;8.00;3.80;;;22.90;99.90;;;;;;5022661;28;20084;-65
2022/05/23 10:26:06;;;;;;;6.32;4.05;;;23.00;99.90;;;;;;5014903;28;20057;-66
2022/05/23 10:28:56;;;;;;;5.35;3.70;;;23.00;99.90;;;;;;5040956;28;20049;-66
2022/05/23 10:31:42;;;;;;;5.97;3.88;;;23.00;99.90;;;;;;5024757;28;20057;-65
2022/05/23 10:34:33;;;;;;;7.63;4.65;;;23.10;99.90;;;;;;5044164;28;20053;-65
2022/05/23 10:37:03;;;;;;;5.85;3.85;;;23.10;99.90;;;;;;4990216;28;20068;-65
2022/05/23 10:42:24;;;;;;;6.80;4.20;;;23.00;99.90;;;;;;5039540;28;20064;-65
2022/05/23 10:45:16;;;;;;;4.85;4.28;;;23.20;99.90;;;;;;5018353;28;20204;-65
2022/05/23 10:47:48;;;;;;;5.80;3.88;;;23.30;99.90;;;;;;5033568;28;20339;-66
2022/05/23 10:50:31;;;;;;;6.45;4.22;;;23.30;99.90;;;;;;5019092;28;20053;-65
2022/05/23 10:53:12;;;;;;;4.90;3.13;;;23.30;99.90;;;;;;5032013;28;20413;-66
2022/05/23 10:56:02;;;;;;;7.00;3.92;;;23.20;99.90;;;;;;5038629;28;20079;-66
2022/05/23 10:58:42;;;;;;;7.53;3.50;;;23.20;99.90;;;;;;5014382;28;20104;-66
2022/05/23 11:01:14;;;;;;;5.88;3.22;;;23.10;99.90;;;;;;5013124;28;20080;-66
2022/05/23 11:03:42;;;;;;;4.75;3.88;;;23.20;99.90;;;;;;5057116;28;20556;-66
2022/05/23 11:06:28;;;;;;;6.03;3.60;;;23.10;99.90;;;;;;5027160;28;20059;-65
2022/05/23 11:09:13;;;;;;;6.32;3.83;;;23.20;99.90;;;;;;5018323;28;20045;-66
2022/05/23 11:12:04;;;;;;;6.05;3.08;;;23.20;99.90;;;;;;5039755;28;20120;-65
2022/05/23 11:15:02;;;;;;;7.93;3.20;;;23.30;99.90;;;;;;5022967;28;20049;-65
2022/05/23 11:18:01;;;;;;;6.28;3.80;;;23.30;99.90;;;;;;4960786;28;20050;-66
2022/05/23 11:20:37;;;;;;;;;;;23.40;99.90;;;;;;5015580;28;20076;-66
2022/05/23 11:23:28;;;;;;;3.97;3.15;;;23.40;99.90;;;;;;5048217;28;19925;-66
2022/05/23 11:26:02;;;;;;;4.43;3.03;;;23.50;99.90;;;;;;5041226;28;20197;-66
2022/05/23 11:34:33;;;;;;;4.80;3.15;;;23.60;99.90;;;;;;5040812;28;20561;-66
2022/05/23 11:40:06;;;;;;;5.97;3.20;;;23.80;99.90;;;;;;5028859;28;20053;-66
2022/05/23 11:42:56;;;;;;;5.88;3.15;;;23.90;99.90;;;;;;5052563;28;20121;-66
2022/05/23 11:48:56;;;;;;;5.60;3.42;;;24.00;99.90;;;;;;5047639;28;20079;-66
2022/05/23 11:51:23;;;;;;;6.00;3.55;;;24.10;99.90;;;;;;5025203;28;20045;-66
2022/05/23 11:54:27;;;;;;;5.13;3.47;;;24.10;99.90;;;;;;5042355;28;20116;-66
2022/05/23 11:57:02;;;;;;;6.70;3.50;;;24.10;99.90;;;;;;5026949;28;20072;-66
2022/05/23 11:59:28;;;;;;;6.95;3.78;;;24.10;99.90;;;;;;5041680;28;20037;-66
2022/05/23 12:02:12;;;;;;;5.93;3.45;;;24.30;99.90;;;;;;4995516;28;20042;-66
2022/05/23 12:04:49;;;;;;;4.47;3.60;;;24.50;99.90;;;;;;5038910;28;20061;-66
2022/05/23 12:07:34;;;;;;;5.20;3.38;;;24.70;99.90;;;;;;5014539;28;20284;-66
2022/05/23 12:10:25;;;;;;;7.20;3.47;;;24.90;99.90;;;;;;5031655;28;20540;-66
2022/05/23 12:13:18;;;;;;;4.25;3.42;;;25.00;99.90;;;;;;5052955;28;20068;-66
2022/05/23 12:15:46;;;;;;;6.63;3.97;;;25.00;99.90;;;;;;5012021;28;20144;-66
2022/05/23 12:18:12;;;;;;;6.22;3.72;;;25.20;99.90;;;;;;5022750;28;20045;-66
2022/05/23 12:20:45;;;;;;;4.15;2.90;;;25.20;99.90;;;;;;5036146;28;20054;-66
2022/05/23 12:23:16;;;;;;;5.60;3.10;;;25.20;99.90;;;;;;5028286;28;20569;-66
2022/05/23 12:25:42;;;;;;;4.18;2.63;;;25.10;99.90;;;;;;5015275;28;20102;-66
2022/05/23 12:28:16;;;;;;;5.47;2.67;;;25.10;99.90;;;;;;5034883;28;20049;-66
2022/05/23 12:31:06;;;;;;;7.10;3.55;;;25.10;99.90;;;;;;5022009;28;20044;-66
2022/05/23 12:33:32;;;;;;;7.47;3.78;;;25.20;99.90;;;;;;5029020;28;20061;-66
2022/05/23 12:36:07;;;;;;;7.03;3.15;;;25.30;99.90;;;;;;5009424;28;20053;-66
2022/05/23 12:38:53;;;;;;;5.65;3.75;;;25.20;99.90;;;;;;5027313;28;20113;-66
2022/05/23 12:41:41;;;;;;;4.93;3.20;;;25.00;99.90;;;;;;5040506;28;20049;-66
2022/05/23 12:44:53;;;;;;;5.23;3.57;;;24.90;99.90;;;;;;5024855;28;20037;-66
2022/05/23 12:48:05;;;;;;;5.82;3.65;;;24.80;99.90;;;;;;5016540;28;20099;-65
2022/05/23 12:51:21;;;;;;;5.50;3.92;;;24.80;99.90;;;;;;4954805;28;20319;-65
2022/05/23 12:54:43;;;;;;;5.82;3.80;;;24.90;99.90;;;;;;4911542;29;20501;-66
2022/05/23 12:57:35;;;;;;;6.88;3.35;;;25.00;99.90;;;;;;4888706;29;20096;-66
2022/05/23 13:00:06;;;;;;;7.57;3.78;;;25.00;99.90;;;;;;4896596;29;20134;-66
2022/05/23 13:02:34;;;;;;;4.90;3.78;;;25.10;99.90;;;;;;4887172;29;20061;-66
2022/05/23 13:05:12;;;;;;;8.00;3.90;;;25.00;99.90;;;;;;4896954;29;20140;-66
2022/05/23 13:07:59;;;;;;;5.70;3.47;;;25.00;99.90;;;;;;4889021;29;20057;-65
2022/05/23 13:10:41;;;;;;;4.30;3.60;;;24.90;99.90;;;;;;4874904;29;20048;-66
2022/05/23 13:13:19;;;;;;;4.57;3.20;;;24.80;99.90;;;;;;4907146;29;20101;-66
2022/05/23 13:15:45;;;;;;;4.85;3.83;;;24.70;99.90;;;;;;4876496;29;20283;-66
2022/05/23 13:23:46;;;;;;;5.63;3.67;;;24.60;99.90;;;;;;4888779;29;20118;-66
2022/05/23 13:26:12;;;;;;;5.40;3.75;;;24.60;99.90;;;;;;4900738;29;20072;-66
2022/05/23 13:28:43;;;;;;;4.78;3.55;;;24.60;99.90;;;;;;4946539;28;20059;-67
2022/05/23 13:31:35;;;;;;;6.13;3.72;;;24.60;99.90;;;;;;5026870;28;20053;-65
2022/05/23 13:34:00;;;;;;;5.63;4.10;;;24.70;99.90;;;;;;5041531;28;20045;-66
2022/05/23 13:36:39;;;;;;;5.78;3.65;;;24.70;99.90;;;;;;5028929;28;20076;-66
2022/05/23 13:39:11;;;;;;;4.18;3.40;;;24.70;99.90;;;;;;5023724;28;20049;-66
2022/05/23 13:41:37;;;;;;;4.43;3.40;;;24.70;99.90;;;;;;5023947;28;20048;-66
2022/05/23 13:44:03;;;;;;;5.97;3.58;;;24.60;99.90;;;;;;5043344;28;20042;-66
2022/05/23 13:46:29;;;;;;;4.80;3.15;;;24.60;99.90;;;;;;5020492;28;20052;-66
2022/05/23 13:49:15;;;;;;;9.05;3.80;;;24.60;99.90;;;;;;5017576;28;20047;-66
2022/05/23 13:51:46;;;;;;;4.55;3.55;;;24.50;99.90;;;;;;5038881;28;20453;-66
2022/05/23 13:54:22;;;;;;;6.95;3.55;;;24.50;99.90;;;;;;5022311;28;20504;-66
2022/05/23 13:57:12;;;;;;;7.25;3.85;;;24.60;99.90;;;;;;5023625;28;20053;-66
2022/05/23 13:59:53;;;;;;;5.07;3.30;;;24.70;99.90;;;;;;5047469;28;20207;-66
2022/05/23 14:02:24;;;;;;;5.57;3.47;;;24.90;99.90;;;;;;5009780;28;20058;-66
2022/05/23 14:04:53;;;;;;;5.53;3.70;;;25.00;99.90;;;;;;5020250;28;20057;-66
2022/05/23 14:07:25;;;;;;;5.63;3.53;;;25.20;99.90;;;;;;5044923;28;20079;-66
2022/05/23 14:09:54;;;;;;;5.22;3.45;;;25.30;99.90;;;;;;5036210;28;20091;-66
2022/05/23 14:12:30;;;;;;;4.00;3.03;;;25.40;99.90;;;;;;5019349;28;20049;-66
2022/05/23 14:14:59;;;;;;;8.20;3.67;;;25.30;99.90;;;;;;5018718;28;20090;-66
2022/05/23 14:17:24;;;;;;;;;;;25.30;99.90;;;;;;5043898;28;20052;-66